Time;durP1;ratioP1;P1;durP2;ratioP2;P2;SDS_P1;SDS_P2;PMS_P1;PMS_P2;Temp;Humidity;BMP_temperature;BMP_pressure;BME280_temperature;BME280_humidity;BME280_pressure;Samples;Min_cycle;Max_cycle;Signal;HPM_P1;HPM_P2
2021/10/06 00:01:14;;;;;;;1.42;0.85;;;18.60;67.80;;;;;;5052879;28;20531;-64
2021/10/06 00:03:40;;;;;;;1.05;0.82;;;18.60;67.70;;;;;;5052710;28;20363;-65
2021/10/06 00:06:05;;;;;;;2.53;1.00;;;18.60;67.60;;;;;;5052018;28;20182;-65
2021/10/06 00:08:31;;;;;;;1.65;1.13;;;18.60;67.60;;;;;;5052975;28;20183;-65
2021/10/06 00:10:56;;;;;;;1.42;1.10;;;18.50;67.50;;;;;;5052618;28;20182;-64
2021/10/06 00:13:22;;;;;;;1.25;1.13;;;18.50;67.60;;;;;;5051918;28;20260;-65
2021/10/06 00:15:47;;;;;;;1.90;1.00;;;18.50;67.60;;;;;;5052590;28;20177;-64
2021/10/06 00:18:14;;;;;;;1.75;1.30;;;18.50;67.60;;;;;;5052874;28;20566;-65
2021/10/06 00:20:39;;;;;;;1.27;1.08;;;18.50;67.70;;;;;;5052062;28;20174;-66
2021/10/06 00:23:05;;;;;;;1.60;1.00;;;18.50;67.70;;;;;;5052223;28;20222;-64
2021/10/06 00:25:30;;;;;;;1.33;1.10;;;18.50;67.70;;;;;;5052639;28;20198;-64
2021/10/06 00:27:56;;;;;;;2.35;1.08;;;18.50;67.60;;;;;;5051570;28;20182;-63
2021/10/06 00:30:21;;;;;;;1.73;0.95;;;18.50;68.50;;;;;;5052582;28;20262;-64
2021/10/06 00:32:47;;;;;;;1.45;1.15;;;18.50;67.70;;;;;;5052653;28;20309;-65
2021/10/06 00:35:12;;;;;;;1.52;1.00;;;18.50;67.70;;;;;;5051824;28;20178;-65
2021/10/06 00:37:38;;;;;;;1.20;0.93;;;18.50;67.70;;;;;;5052656;28;20210;-66
2021/10/06 00:40:04;;;;;;;1.67;1.10;;;18.50;67.70;;;;;;5051918;28;20182;-64
2021/10/06 00:42:30;;;;;;;1.98;1.27;;;18.50;67.70;;;;;;5052222;28;20181;-65
2021/10/06 00:44:55;;;;;;;2.10;0.93;;;18.50;67.60;;;;;;5052073;28;20168;-65
2021/10/06 00:47:21;;;;;;;1.73;0.95;;;18.50;67.60;;;;;;5051645;28;20609;-64
2021/10/06 00:49:46;;;;;;;2.80;1.30;;;18.50;67.70;;;;;;5052525;28;20184;-66
2021/10/06 00:52:13;;;;;;;3.70;1.40;;;18.40;67.50;;;;;;5051924;28;20186;-64
2021/10/06 00:54:39;;;;;;;0.95;0.88;;;18.50;67.70;;;;;;5051796;28;20183;-65
2021/10/06 00:57:04;;;;;;;1.13;0.93;;;18.50;67.60;;;;;;5052111;28;20178;-63
2021/10/06 00:59:30;;;;;;;0.80;0.80;;;18.40;67.50;;;;;;5052487;28;20175;-64
2021/10/06 01:01:55;;;;;;;1.05;0.80;;;18.50;67.60;;;;;;5051562;28;20167;-65
2021/10/06 01:04:22;;;;;;;1.40;1.00;;;18.40;67.50;;;;;;5052429;28;20190;-63
2021/10/06 01:06:48;;;;;;;1.48;0.98;;;18.40;67.60;;;;;;5050888;28;20186;-65
2021/10/06 01:09:13;;;;;;;1.98;1.00;;;18.40;67.50;;;;;;5051564;28;20176;-65
2021/10/06 01:11:39;;;;;;;2.47;1.17;;;18.40;67.50;;;;;;5052146;28;20176;-65
2021/10/06 01:14:04;;;;;;;1.00;0.90;;;18.40;67.40;;;;;;5050524;28;20203;-66
2021/10/06 01:16:30;;;;;;;0.88;0.88;;;18.40;67.50;;;;;;5053343;28;20657;-64
2021/10/06 01:18:55;;;;;;;2.35;0.98;;;18.40;67.40;;;;;;5054619;28;20234;-66
2021/10/06 01:21:21;;;;;;;3.03;0.93;;;18.40;67.40;;;;;;5055978;28;20179;-64
2021/10/06 01:23:47;;;;;;;1.17;1.02;;;18.40;67.60;;;;;;5054874;28;20235;-65
2021/10/06 01:26:18;;;;;;;1.38;1.15;;;18.40;67.50;;;;;;5055707;28;20180;-63
2021/10/06 01:28:45;;;;;;;1.63;1.17;;;18.40;67.50;;;;;;5055898;28;20187;-63
2021/10/06 01:31:11;;;;;;;1.05;0.88;;;18.40;67.50;;;;;;5054633;28;20687;-64
2021/10/06 01:33:36;;;;;;;1.40;0.82;;;18.40;67.50;;;;;;5055596;28;20302;-64
2021/10/06 01:36:02;;;;;;;2.13;1.10;;;18.40;67.50;;;;;;5055272;28;20687;-65
2021/10/06 01:38:27;;;;;;;1.48;1.17;;;18.40;67.50;;;;;;5054651;28;20214;-65
2021/10/06 01:40:53;;;;;;;3.15;1.15;;;18.40;67.40;;;;;;5055215;28;20175;-65
2021/10/06 01:43:18;;;;;;;2.38;1.40;;;18.40;67.40;;;;;;5055351;28;20260;-65
2021/10/06 01:45:44;;;;;;;1.52;1.17;;;18.40;67.50;;;;;;5054670;28;20171;-64
2021/10/06 01:48:11;;;;;;;2.03;1.15;;;18.40;67.40;;;;;;5055092;28;20531;-65
2021/10/06 01:50:41;;;;;;;1.10;1.00;;;18.40;67.40;;;;;;5054742;28;20175;-65
2021/10/06 01:53:07;;;;;;;0.93;0.85;;;18.40;67.50;;;;;;5054955;28;20657;-65
2021/10/06 01:55:33;;;;;;;0.98;0.82;;;18.40;68.40;;;;;;5055253;28;20229;-64
2021/10/06 01:58:00;;;;;;;2.10;1.08;;;18.40;67.40;;;;;;5054268;28;20203;-63
2021/10/06 02:00:25;;;;;;;2.30;1.00;;;18.40;67.50;;;;;;5055229;28;20236;-64
2021/10/06 02:02:51;;;;;;;1.30;0.93;;;18.40;67.40;;;;;;5054753;28;20183;-64
2021/10/06 02:05:17;;;;;;;0.82;0.80;;;18.30;67.40;;;;;;5054430;28;20183;-64
2021/10/06 02:07:42;;;;;;;1.08;0.80;;;18.30;67.50;;;;;;5054974;28;20179;-66
2021/10/06 02:10:09;;;;;;;1.52;0.93;;;18.30;67.40;;;;;;5054732;28;20171;-65
2021/10/06 02:12:34;;;;;;;1.67;1.10;;;18.40;67.50;;;;;;5054344;28;20260;-65
2021/10/06 02:15:00;;;;;;;1.88;1.27;;;18.30;67.50;;;;;;5054779;28;20163;-64
2021/10/06 02:17:25;;;;;;;2.00;1.30;;;18.40;67.50;;;;;;5054622;28;20178;-65
2021/10/06 02:19:51;;;;;;;1.58;0.95;;;18.30;67.40;;;;;;5053778;28;20171;-66
2021/10/06 02:22:16;;;;;;;2.00;1.13;;;18.40;67.50;;;;;;5054595;28;20179;-64
2021/10/06 02:24:42;;;;;;;1.38;0.98;;;18.30;67.50;;;;;;5054616;28;20178;-64
2021/10/06 02:27:07;;;;;;;8.80;1.33;;;18.30;67.40;;;;;;5052779;28;20187;-62
2021/10/06 02:29:33;;;;;;;1.13;0.80;;;18.30;67.40;;;;;;5054085;28;20525;-64
2021/10/06 02:31:58;;;;;;;2.13;0.80;;;18.30;67.40;;;;;;5054364;28;20209;-64
2021/10/06 02:34:24;;;;;;;0.98;0.80;;;18.30;67.40;;;;;;5053844;28;20321;-65
2021/10/06 02:36:49;;;;;;;1.20;0.90;;;18.30;67.40;;;;;;5054080;28;20250;-66
2021/10/06 02:39:15;;;;;;;1.27;1.10;;;18.30;67.40;;;;;;5054387;28;20171;-65
2021/10/06 02:41:40;;;;;;;0.93;0.82;;;18.30;68.20;;;;;;5053592;28;20171;-65
2021/10/06 02:44:06;;;;;;;1.25;0.90;;;18.30;67.30;;;;;;5054265;28;20648;-64
2021/10/06 02:46:31;;;;;;;1.08;0.90;;;18.30;67.30;;;;;;5054324;28;20167;-65
2021/10/06 02:48:57;;;;;;;2.72;0.95;;;18.30;67.40;;;;;;5053380;28;20183;-65
2021/10/06 02:51:22;;;;;;;1.02;0.82;;;18.30;67.40;;;;;;5054073;28;20180;-64
2021/10/06 02:53:48;;;;;;;1.40;0.98;;;18.30;67.20;;;;;;5052887;28;20681;-65
2021/10/06 02:56:14;;;;;;;1.27;0.90;;;18.30;67.40;;;;;;5053954;28;20216;-64
2021/10/06 02:58:40;;;;;;;1.20;1.10;;;18.30;67.40;;;;;;5054158;28;20207;-64
2021/10/06 03:01:05;;;;;;;1.80;0.70;;;18.30;67.30;;;;;;5053078;28;20256;-64
2021/10/06 03:03:31;;;;;;;2.40;1.05;;;18.30;67.30;;;;;;5054023;28;20208;-63
2021/10/06 03:05:56;;;;;;;1.10;1.00;;;18.30;67.30;;;;;;5053535;28;20599;-64
2021/10/06 03:08:22;;;;;;;1.85;0.80;;;18.30;67.40;;;;;;5053097;28;20644;-65
2021/10/06 03:10:47;;;;;;;0.88;0.88;;;18.30;67.30;;;;;;5053845;28;20179;-65
2021/10/06 03:13:13;;;;;;;1.08;0.98;;;18.30;67.30;;;;;;5053787;28;20207;-66
2021/10/06 03:15:38;;;;;;;1.02;0.93;;;18.30;67.40;;;;;;5052954;28;20171;-64
2021/10/06 03:18:04;;;;;;;1.60;0.90;;;18.30;67.40;;;;;;5053230;28;20711;-66
2021/10/06 03:20:29;;;;;;;2.15;1.02;;;18.30;67.30;;;;;;5053747;28;20175;-64
2021/10/06 03:22:54;;;;;;;1.48;0.80;;;18.30;67.30;;;;;;5052565;28;20262;-64
2021/10/06 03:25:20;;;;;;;1.35;1.00;;;18.20;67.30;;;;;;5053458;28;20183;-63
2021/10/06 03:27:45;;;;;;;2.67;0.98;;;18.30;67.30;;;;;;5053343;28;20533;-63
2021/10/06 03:30:11;;;;;;;2.28;0.90;;;18.20;67.30;;;;;;5052572;28;20175;-64
2021/10/06 03:32:37;;;;;;;1.17;0.90;;;18.30;67.30;;;;;;5053392;28;20202;-64
2021/10/06 03:35:03;;;;;;;1.90;0.95;;;18.20;67.40;;;;;;5053084;28;20172;-65
2021/10/06 03:37:28;;;;;;;0.93;0.80;;;18.20;67.40;;;;;;5052656;28;20175;-66
2021/10/06 03:39:54;;;;;;;2.45;1.02;;;18.20;67.40;;;;;;5052519;28;20189;-66
2021/10/06 03:42:19;;;;;;;2.20;1.08;;;18.20;67.40;;;;;;5053428;28;20703;-66
2021/10/06 03:44:45;;;;;;;2.22;0.98;;;18.20;67.30;;;;;;5052527;28;20171;-65
2021/10/06 03:47:10;;;;;;;1.02;0.90;;;18.20;67.30;;;;;;5053024;28;20198;-65
2021/10/06 03:49:36;;;;;;;1.92;0.82;;;18.20;67.30;;;;;;5052998;28;20186;-64
2021/10/06 03:52:02;;;;;;;1.90;0.90;;;18.20;67.20;;;;;;5052003;28;20630;-66
2021/10/06 03:54:27;;;;;;;2.25;0.90;;;18.20;67.30;;;;;;5052917;28;20183;-65
2021/10/06 03:56:52;;;;;;;2.75;1.10;;;18.20;67.40;;;;;;5052873;28;20167;-64
2021/10/06 03:59:18;;;;;;;2.55;1.02;;;18.20;67.40;;;;;;5052429;28;20178;-64
2021/10/06 04:01:44;;;;;;;1.58;0.90;;;18.20;67.50;;;;;;5051767;28;20163;-63
2021/10/06 04:04:09;;;;;;;1.50;0.93;;;18.20;67.40;;;;;;5051937;28;20249;-64
2021/10/06 04:06:35;;;;;;;2.40;1.20;;;18.20;67.40;;;;;;5052769;28;20167;-65
2021/10/06 04:09:00;;;;;;;1.30;1.00;;;18.20;67.30;;;;;;5052442;28;20182;-65
2021/10/06 04:11:26;;;;;;;1.33;0.93;;;18.20;67.40;;;;;;5052197;28;20583;-66
2021/10/06 04:13:51;;;;;;;2.28;1.40;;;18.20;67.40;;;;;;5052312;28;20554;-64
2021/10/06 04:16:17;;;;;;;1.38;1.10;;;18.20;67.40;;;;;;5052901;28;20167;-65
2021/10/06 04:18:42;;;;;;;1.25;0.98;;;18.20;67.40;;;;;;5052080;28;20261;-65
2021/10/06 04:21:08;;;;;;;1.35;0.90;;;18.20;67.40;;;;;;5052450;28;20266;-65
2021/10/06 04:23:33;;;;;;;1.60;1.05;;;18.20;67.50;;;;;;5052454;28;20234;-65
2021/10/06 04:25:59;;;;;;;1.52;1.13;;;18.20;67.60;;;;;;5051815;28;20626;-63
2021/10/06 04:28:24;;;;;;;1.55;0.80;;;18.20;67.60;;;;;;5052652;28;20549;-63
2021/10/06 04:30:50;;;;;;;1.52;0.88;;;18.20;67.50;;;;;;5052307;28;20183;-64
2021/10/06 04:33:15;;;;;;;1.25;0.80;;;18.20;67.50;;;;;;5051930;28;20226;-65
2021/10/06 04:35:41;;;;;;;0.77;0.77;;;18.10;67.50;;;;;;5052529;28;20186;-66
2021/10/06 04:38:06;;;;;;;1.42;1.00;;;18.20;67.60;;;;;;5052318;28;20213;-65
2021/10/06 04:40:32;;;;;;;1.52;0.98;;;18.10;67.50;;;;;;5051772;28;20194;-66
2021/10/06 04:42:57;;;;;;;1.10;0.98;;;18.20;67.60;;;;;;5052384;28;20179;-64
2021/10/06 04:45:23;;;;;;;1.25;0.70;;;18.20;67.60;;;;;;5052694;28;20167;-65
2021/10/06 04:47:48;;;;;;;1.80;0.95;;;18.20;67.50;;;;;;5051480;28;20182;-66
2021/10/06 04:50:14;;;;;;;1.40;0.80;;;18.10;67.40;;;;;;5052572;28;20171;-65
2021/10/06 04:52:39;;;;;;;1.05;0.60;;;18.10;67.40;;;;;;5056033;28;20211;-65
2021/10/06 04:55:05;;;;;;;1.80;1.00;;;18.10;67.50;;;;;;5055461;28;20195;-65
2021/10/06 04:57:31;;;;;;;1.02;0.93;;;18.10;67.50;;;;;;5056089;28;20664;-63
2021/10/06 04:59:56;;;;;;;0.90;0.77;;;18.10;67.40;;;;;;5056063;28;20205;-64
2021/10/06 05:02:22;;;;;;;1.38;0.95;;;18.10;67.60;;;;;;5055662;28;20178;-63
2021/10/06 05:04:47;;;;;;;1.90;1.02;;;18.10;67.40;;;;;;5055919;28;20167;-64
2021/10/06 05:07:13;;;;;;;1.15;1.02;;;18.10;67.60;;;;;;5056186;28;20179;-65
2021/10/06 05:09:38;;;;;;;2.58;1.10;;;18.10;67.40;;;;;;5055463;28;20652;-65
2021/10/06 05:12:04;;;;;;;3.20;0.90;;;18.10;67.50;;;;;;5055936;28;20187;-66
2021/10/06 05:14:30;;;;;;;1.98;1.20;;;18.10;67.60;;;;;;5055392;28;20527;-64
2021/10/06 05:16:55;;;;;;;1.63;0.90;;;18.10;67.50;;;;;;5055710;28;20171;-65
2021/10/06 05:19:21;;;;;;;1.10;0.70;;;18.10;67.40;;;;;;5056059;28;20175;-66
2021/10/06 05:21:46;;;;;;;1.80;0.82;;;18.10;67.40;;;;;;5055234;28;20183;-65
2021/10/06 05:24:12;;;;;;;3.70;1.33;;;18.10;67.50;;;;;;5055295;28;20227;-65
2021/10/06 05:26:37;;;;;;;1.33;0.95;;;18.10;67.60;;;;;;5055673;28;20232;-62
2021/10/06 05:29:03;;;;;;;0.70;0.63;;;18.10;67.50;;;;;;5055097;28;20174;-64
2021/10/06 05:31:28;;;;;;;1.55;0.90;;;18.10;67.50;;;;;;5055753;28;20171;-64
2021/10/06 05:33:54;;;;;;;0.82;0.70;;;18.10;67.50;;;;;;5055191;28;20715;-65
2021/10/06 05:36:19;;;;;;;0.98;0.90;;;18.10;67.50;;;;;;5054960;28;20168;-66
2021/10/06 05:38:45;;;;;;;1.65;0.82;;;18.00;67.40;;;;;;5055719;28;20175;-64
2021/10/06 05:41:10;;;;;;;1.20;1.00;;;18.10;67.40;;;;;;5055392;28;20182;-66
2021/10/06 05:43:36;;;;;;;0.88;0.82;;;18.00;67.40;;;;;;5054833;28;20265;-66
2021/10/06 05:46:02;;;;;;;1.20;0.80;;;18.00;67.30;;;;;;5055287;28;20213;-65
2021/10/06 05:48:27;;;;;;;1.27;0.80;;;18.00;67.40;;;;;;5055313;28;20182;-65
2021/10/06 05:50:52;;;;;;;0.90;0.70;;;18.10;67.60;;;;;;5054293;28;20622;-64
2021/10/06 05:53:18;;;;;;;0.98;0.68;;;18.00;67.50;;;;;;5055067;28;20241;-65
2021/10/06 05:55:44;;;;;;;1.63;0.75;;;18.00;67.50;;;;;;5055446;28;20247;-65
2021/10/06 05:58:10;;;;;;;1.02;0.82;;;18.00;67.50;;;;;;5054307;28;20656;-64
2021/10/06 06:00:35;;;;;;;1.83;0.77;;;18.00;67.50;;;;;;5055300;28;20603;-64
2021/10/06 06:03:01;;;;;;;1.60;1.10;;;18.00;67.40;;;;;;5054674;28;20604;-63
2021/10/06 06:05:26;;;;;;;1.48;1.10;;;18.00;67.50;;;;;;5054361;28;20630;-65
2021/10/06 06:07:52;;;;;;;1.38;0.90;;;18.00;67.40;;;;;;5054716;28;20198;-66
2021/10/06 06:10:17;;;;;;;1.73;0.82;;;18.00;67.40;;;;;;5055273;28;20167;-64
2021/10/06 06:12:43;;;;;;;1.75;1.10;;;18.00;67.50;;;;;;5054321;28;20229;-65
2021/10/06 06:15:08;;;;;;;2.88;1.08;;;18.00;67.50;;;;;;5054580;28;20171;-64
2021/10/06 06:17:37;;;;;;;1.60;0.98;;;18.00;67.30;;;;;;5055009;28;20703;-65
2021/10/06 06:20:10;;;;;;;2.88;1.08;;;18.00;67.50;;;;;;5053729;28;20507;-65
2021/10/06 06:22:36;;;;;;;1.58;0.90;;;18.00;67.50;;;;;;5054588;28;20211;-63
2021/10/06 06:25:02;;;;;;;2.05;0.90;;;18.00;67.50;;;;;;5053911;28;21029;-63
2021/10/06 06:27:27;;;;;;;1.55;1.20;;;18.00;67.40;;;;;;5054716;28;20178;-63
2021/10/06 06:29:53;;;;;;;1.40;0.80;;;18.00;67.30;;;;;;5054388;28;20167;-64
2021/10/06 06:32:18;;;;;;;3.83;1.30;;;18.00;67.40;;;;;;5053811;28;20194;-65
2021/10/06 06:34:44;;;;;;;1.35;1.05;;;18.00;67.50;;;;;;5054623;28;20198;-65
2021/10/06 06:37:10;;;;;;;2.05;1.15;;;18.00;67.40;;;;;;5054267;28;20202;-66
2021/10/06 06:39:35;;;;;;;0.98;0.80;;;18.00;67.40;;;;;;5053937;28;20212;-66
2021/10/06 06:42:01;;;;;;;2.08;1.10;;;18.00;67.40;;;;;;5054053;28;20179;-66
2021/10/06 06:44:26;;;;;;;1.10;1.00;;;18.00;67.40;;;;;;5054423;28;20549;-66
2021/10/06 06:46:52;;;;;;;2.80;1.25;;;18.00;67.40;;;;;;5053279;28;20254;-64
2021/10/06 06:49:17;;;;;;;2.15;1.00;;;18.00;67.40;;;;;;5054194;28;20181;-65
2021/10/06 06:51:43;;;;;;;2.15;0.98;;;17.90;67.30;;;;;;5054337;28;20178;-65
2021/10/06 06:54:08;;;;;;;1.00;0.90;;;17.90;67.40;;;;;;5053223;28;20207;-65
2021/10/06 06:56:38;;;;;;;1.65;0.93;;;18.00;67.40;;;;;;5054072;28;20187;-64
2021/10/06 06:59:05;;;;;;;1.58;0.93;;;18.00;67.30;;;;;;5053837;28;20175;-63
2021/10/06 07:01:31;;;;;;;2.65;0.98;;;18.00;67.50;;;;;;5053236;28;20171;-64
2021/10/06 07:03:56;;;;;;;1.13;0.85;;;18.00;67.60;;;;;;5053524;28;20220;-64
2021/10/06 07:06:22;;;;;;;1.35;0.80;;;18.00;67.50;;;;;;5054059;28;20170;-63
2021/10/06 07:08:48;;;;;;;3.38;1.25;;;18.00;67.50;;;;;;5053037;28;20175;-65
2021/10/06 07:11:14;;;;;;;2.03;1.10;;;17.90;67.50;;;;;;5053836;28;20229;-64
2021/10/06 07:13:40;;;;;;;1.83;0.90;;;17.90;67.40;;;;;;5052962;28;20242;-65
2021/10/06 07:16:05;;;;;;;0.80;0.80;;;17.90;67.50;;;;;;5052638;28;20179;-66
2021/10/06 07:18:31;;;;;;;1.30;0.85;;;18.00;67.50;;;;;;5053549;28;20179;-65
2021/10/06 07:20:56;;;;;;;1.05;0.95;;;17.90;67.30;;;;;;5053454;28;20226;-65
2021/10/06 07:23:22;;;;;;;1.67;1.08;;;17.90;67.30;;;;;;5052820;28;20300;-63
2021/10/06 07:25:47;;;;;;;2.03;0.90;;;17.90;67.30;;;;;;5053381;28;20175;-63
2021/10/06 07:28:13;;;;;;;2.55;1.00;;;17.90;67.30;;;;;;5052677;28;20576;-62
2021/10/06 07:30:38;;;;;;;0.90;0.80;;;17.90;68.30;;;;;;5053460;28;20630;-63
2021/10/06 07:33:04;;;;;;;1.08;1.00;;;17.90;67.40;;;;;;5053039;28;20214;-64
2021/10/06 07:35:30;;;;;;;0.85;0.82;;;17.90;67.40;;;;;;5052771;28;20258;-64
2021/10/06 07:37:55;;;;;;;1.35;0.75;;;17.90;67.40;;;;;;5053144;28;20203;-65
2021/10/06 07:40:21;;;;;;;1.80;0.98;;;17.90;67.50;;;;;;5053191;28;20197;-67
2021/10/06 07:42:46;;;;;;;1.52;1.05;;;17.90;67.40;;;;;;5052557;28;20175;-64
2021/10/06 07:45:12;;;;;;;1.88;1.23;;;17.90;67.30;;;;;;5052873;28;20179;-64
2021/10/06 07:47:37;;;;;;;2.30;0.93;;;17.90;67.70;;;;;;5053038;28;20637;-64
2021/10/06 07:50:03;;;;;;;2.55;1.02;;;18.00;67.70;;;;;;5052213;28;20174;-73
2021/10/06 07:52:28;;;;;;;3.55;1.05;;;17.90;67.60;;;;;;5053119;28;20175;-72
2021/10/06 07:54:54;;;;;;;3.88;1.50;;;17.90;67.70;;;;;;5052674;28;20238;-63
2021/10/06 07:57:19;;;;;;;3.38;1.00;;;17.90;67.80;;;;;;5052384;28;20198;-64
2021/10/06 07:59:45;;;;;;;2.55;1.40;;;18.00;67.70;;;;;;5052981;28;20202;-63
2021/10/06 08:02:11;;;;;;;2.63;1.67;;;18.00;67.70;;;;;;5052756;28;20182;-64
2021/10/06 08:04:37;;;;;;;3.13;1.52;;;18.00;67.90;;;;;;5052357;28;20167;-64
2021/10/06 08:07:03;;;;;;;3.05;1.17;;;18.00;68.00;;;;;;5052718;28;20229;-65
2021/10/06 08:09:29;;;;;;;2.22;1.60;;;18.00;68.00;;;;;;5053145;28;20236;-64
2021/10/06 08:11:54;;;;;;;2.97;1.30;;;18.10;67.90;;;;;;5051843;28;20661;-64
2021/10/06 08:14:20;;;;;;;4.57;1.40;;;18.00;67.90;;;;;;5052599;28;20639;-64
2021/10/06 08:16:45;;;;;;;2.03;1.10;;;18.00;68.00;;;;;;5052717;28;20167;-65
2021/10/06 08:19:11;;;;;;;3.53;1.20;;;18.00;67.90;;;;;;5052081;28;20182;-65
2021/10/06 08:21:36;;;;;;;3.10;1.40;;;18.10;68.00;;;;;;5052693;28;20175;-65
2021/10/06 08:24:02;;;;;;;2.15;1.38;;;18.10;68.00;;;;;;5052297;28;20223;-64
2021/10/06 08:26:28;;;;;;;2.70;1.65;;;18.10;67.90;;;;;;5055575;28;20656;-64
2021/10/06 08:28:53;;;;;;;3.25;1.50;;;18.10;68.00;;;;;;5056568;28;20566;-64
2021/10/06 08:31:19;;;;;;;4.40;1.60;;;18.10;68.00;;;;;;5056475;28;20220;-63
2021/10/06 08:33:45;;;;;;;2.08;1.30;;;18.10;67.90;;;;;;5056601;28;20633;-66
2021/10/06 08:36:11;;;;;;;2.13;1.35;;;18.10;68.00;;;;;;5056543;28;20214;-65
2021/10/06 08:38:37;;;;;;;3.55;1.50;;;18.10;68.00;;;;;;5056035;28;20170;-64
2021/10/06 08:41:03;;;;;;;3.22;1.17;;;18.10;68.20;;;;;;5057935;28;20633;-64
2021/10/06 08:43:29;;;;;;;2.83;1.02;;;18.10;67.90;;;;;;5063169;28;20552;-64
2021/10/06 08:45:54;;;;;;;4.93;1.30;;;18.10;67.90;;;;;;5069815;28;20177;-65
2021/10/06 08:48:20;;;;;;;1.80;1.17;;;18.00;67.90;;;;;;5064237;28;20175;-64
2021/10/06 08:50:45;;;;;;;2.80;1.52;;;18.10;68.00;;;;;;5076452;28;20179;-64
2021/10/06 08:53:11;;;;;;;1.55;0.90;;;18.00;68.00;;;;;;5075480;28;20716;-63
2021/10/06 08:55:36;;;;;;;2.80;1.65;;;18.00;68.00;;;;;;5075199;28;20186;-63
2021/10/06 08:58:06;;;;;;;2.28;1.27;;;18.10;67.90;;;;;;5065953;28;20203;-64
2021/10/06 09:00:51;;;;;;;2.40;1.25;;;18.00;67.90;;;;;;5055698;28;20529;-63
2021/10/06 09:03:18;;;;;;;3.03;1.10;;;18.10;67.90;;;;;;5055365;28;20258;-64
2021/10/06 09:05:43;;;;;;;2.72;1.20;;;18.10;67.90;;;;;;5038455;28;20179;-64
2021/10/06 09:08:11;;;;;;;1.80;1.02;;;18.00;67.90;;;;;;5037178;28;20175;-64
2021/10/06 09:10:37;;;;;;;3.42;1.40;;;18.10;67.90;;;;;;5056168;28;20171;-63
2021/10/06 09:13:03;;;;;;;2.00;1.20;;;18.10;68.00;;;;;;5055755;28;20207;-64
2021/10/06 09:15:49;;;;;;;2.63;1.35;;;18.00;67.90;;;;;;5055277;28;20187;-64
2021/10/06 09:18:20;;;;;;;3.97;1.40;;;18.00;68.00;;;;;;5056100;28;20276;-70
2021/10/06 09:20:45;;;;;;;3.22;1.35;;;18.00;67.90;;;;;;5055208;28;20175;-65
2021/10/06 09:23:13;;;;;;;1.17;0.98;;;18.00;67.90;;;;;;5055458;28;20222;-64
2021/10/06 09:25:52;;;;;;;1.67;1.13;;;18.00;68.10;;;;;;5055744;28;20179;-65
2021/10/06 09:28:38;;;;;;;2.30;1.05;;;18.10;68.00;;;;;;5055184;28;20194;-63
2021/10/06 09:31:11;;;;;;;2.00;1.15;;;18.10;68.00;;;;;;5055133;28;20186;-64
2021/10/06 09:33:44;;;;;;;3.05;1.45;;;18.10;68.00;;;;;;5055559;28;20633;-65
2021/10/06 09:36:25;;;;;;;3.58;1.05;;;18.00;67.90;;;;;;5054388;28;20201;-65
2021/10/06 09:38:57;;;;;;;2.70;0.90;;;18.10;68.00;;;;;;5055250;28;20254;-66
2021/10/06 09:41:49;;;;;;;0.93;0.80;;;18.10;68.00;;;;;;5055518;28;20254;-65
2021/10/06 09:44:16;;;;;;;2.40;1.17;;;18.10;67.90;;;;;;5055533;28;20183;-65
2021/10/06 09:46:55;;;;;;;2.67;0.90;;;18.20;67.80;;;;;;5055584;28;20179;-65
2021/10/06 09:49:26;;;;;;;1.60;1.17;;;18.20;67.70;;;;;;5054746;28;20194;-66
2021/10/06 09:51:52;;;;;;;1.52;0.90;;;18.20;67.70;;;;;;5054987;28;20634;-65
2021/10/06 09:54:18;;;;;;;2.47;0.80;;;18.20;67.60;;;;;;5055244;28;20215;-65
2021/10/06 09:56:48;;;;;;;3.90;1.00;;;18.30;67.70;;;;;;5054354;28;20225;-64
2021/10/06 09:59:14;;;;;;;2.28;1.10;;;18.30;67.70;;;;;;5055096;28;20634;-65
2021/10/06 10:01:43;;;;;;;1.70;0.93;;;18.40;67.30;;;;;;5055419;28;20179;-65
2021/10/06 10:04:09;;;;;;;1.15;1.02;;;18.50;67.10;;;;;;5054712;28;20187;-64
2021/10/06 10:06:34;;;;;;;1.77;1.30;;;18.50;66.90;;;;;;5055256;28;20171;-64
2021/10/06 10:09:01;;;;;;;1.75;1.30;;;18.50;67.10;;;;;;5054681;28;20236;-64
2021/10/06 10:11:27;;;;;;;2.10;1.08;;;18.50;67.30;;;;;;5054153;28;20581;-65
2021/10/06 10:13:52;;;;;;;2.22;1.33;;;18.40;67.30;;;;;;5053487;28;20206;-64
2021/10/06 10:16:18;;;;;;;3.33;1.10;;;18.40;67.40;;;;;;5054953;28;20183;-64
2021/10/06 10:18:43;;;;;;;1.20;0.85;;;18.40;67.50;;;;;;5054379;28;20230;-65
2021/10/06 10:21:11;;;;;;;1.42;1.30;;;18.40;67.50;;;;;;5053461;28;20167;-64
2021/10/06 10:23:37;;;;;;;2.75;0.90;;;18.40;68.50;;;;;;5053345;28;20234;-64
2021/10/06 10:26:02;;;;;;;3.20;1.13;;;18.30;67.70;;;;;;5053632;28;20178;-64
2021/10/06 10:28:38;;;;;;;6.55;1.00;;;18.40;67.80;;;;;;5055052;28;20175;-63
2021/10/06 10:31:03;;;;;;;1.60;0.98;;;18.30;67.80;;;;;;5053727;28;20232;-64
2021/10/06 10:33:45;;;;;;;2.33;1.30;;;18.30;67.80;;;;;;5054638;28;20206;-64
2021/10/06 10:36:29;;;;;;;1.67;0.80;;;18.30;67.80;;;;;;5054301;28;20218;-64
2021/10/06 10:38:55;;;;;;;1.50;0.80;;;18.40;67.70;;;;;;5053622;28;20321;-67
2021/10/06 10:41:40;;;;;;;1.65;1.23;;;18.40;67.50;;;;;;5054304;28;20514;-66
2021/10/06 10:44:05;;;;;;;3.00;1.10;;;18.40;67.50;;;;;;5058517;28;20581;-66
2021/10/06 10:46:51;;;;;;;2.58;1.08;;;18.40;67.40;;;;;;5039711;28;20673;-66
2021/10/06 10:49:16;;;;;;;1.95;1.20;;;18.40;67.70;;;;;;5034770;28;20172;-65
2021/10/06 10:51:43;;;;;;;1.55;0.98;;;18.40;67.80;;;;;;5045680;28;20642;-66
2021/10/06 10:54:10;;;;;;;3.97;1.23;;;18.40;67.90;;;;;;5073158;28;20214;-66
2021/10/06 10:56:43;;;;;;;2.00;1.20;;;18.30;67.90;;;;;;5074076;28;20277;-65
2021/10/06 10:59:19;;;;;;;1.65;0.90;;;18.30;68.10;;;;;;5072962;28;20178;-65
2021/10/06 11:01:53;;;;;;;1.15;0.90;;;18.30;68.00;;;;;;5054918;28;20179;-67
2021/10/06 11:04:29;;;;;;;1.25;1.00;;;18.30;68.00;;;;;;5054175;28;20175;-66
2021/10/06 11:07:17;;;;;;;3.53;1.02;;;18.30;67.90;;;;;;5052752;28;20630;-66
2021/10/06 11:09:46;;;;;;;1.35;0.82;;;18.30;67.80;;;;;;5053820;28;20194;-65
2021/10/06 11:12:12;;;;;;;3.58;1.00;;;18.40;67.70;;;;;;5053366;28;20676;-64
2021/10/06 11:14:39;;;;;;;3.97;1.30;;;18.40;67.70;;;;;;5052838;28;20254;-65
2021/10/06 11:17:12;;;;;;;1.77;0.90;;;18.40;67.70;;;;;;5057228;28;20174;-66
2021/10/06 11:19:43;;;;;;;1.00;0.90;;;18.40;67.60;;;;;;5075661;28;20182;-69
2021/10/06 11:22:23;;;;;;;1.05;0.77;;;18.40;67.50;;;;;;5072425;28;20643;-73
2021/10/06 11:25:03;;;;;;;2.03;1.15;;;18.40;67.70;;;;;;5073163;28;20591;-71
2021/10/06 11:27:44;;;;;;;3.25;1.02;;;18.40;67.50;;;;;;5072653;28;20186;-71
2021/10/06 11:30:11;;;;;;;1.65;0.90;;;18.50;67.40;;;;;;5073097;28;20174;-70
2021/10/06 11:32:44;;;;;;;2.28;1.10;;;18.50;67.30;;;;;;5071986;28;20175;-69
2021/10/06 11:35:09;;;;;;;2.63;1.13;;;18.50;67.40;;;;;;5072498;28;20209;-63
2021/10/06 11:37:35;;;;;;;2.50;1.10;;;18.50;67.60;;;;;;5073101;28;20206;-64
2021/10/06 11:40:01;;;;;;;3.00;1.08;;;18.50;67.60;;;;;;5073156;28;20591;-65
2021/10/06 11:42:32;;;;;;;3.63;0.93;;;18.50;67.50;;;;;;5072400;28;20174;-65
2021/10/06 11:44:57;;;;;;;2.90;1.25;;;18.50;67.50;;;;;;5073020;28;20202;-63
2021/10/06 11:47:23;;;;;;;1.30;0.85;;;18.50;67.60;;;;;;5073357;28;20202;-63
2021/10/06 11:49:49;;;;;;;2.42;1.00;;;18.70;67.10;;;;;;5072043;28;20197;-63
2021/10/06 11:52:17;;;;;;;1.10;0.80;;;18.70;66.90;;;;;;5060565;28;20180;-63
2021/10/06 11:54:43;;;;;;;1.02;0.77;;;18.60;67.00;;;;;;5053038;28;20211;-63
2021/10/06 11:57:09;;;;;;;2.83;1.02;;;18.60;67.30;;;;;;5051976;28;20171;-62
2021/10/06 11:59:35;;;;;;;1.80;1.05;;;18.60;67.40;;;;;;5052475;28;20548;-63
2021/10/06 12:02:05;;;;;;;2.28;0.80;;;18.60;67.40;;;;;;5052819;28;20171;-63
2021/10/06 12:04:33;;;;;;;2.33;0.95;;;18.60;67.40;;;;;;5052448;28;20179;-63
2021/10/06 12:07:00;;;;;;;1.00;0.80;;;18.60;67.40;;;;;;5052547;28;20649;-63
2021/10/06 12:09:35;;;;;;;1.08;0.88;;;18.60;67.30;;;;;;5050997;28;20237;-62
2021/10/06 12:12:01;;;;;;;1.60;0.90;;;18.70;67.10;;;;;;5052549;28;20546;-63
2021/10/06 12:14:32;;;;;;;1.55;0.88;;;18.60;67.20;;;;;;5052848;28;20206;-63
2021/10/06 12:17:23;;;;;;;1.48;0.98;;;18.70;67.40;;;;;;5051968;28;20175;-63
2021/10/06 12:20:08;;;;;;;0.88;0.80;;;18.70;67.10;;;;;;5052537;28;20267;-64
2021/10/06 12:22:38;;;;;;;2.25;1.00;;;18.70;67.00;;;;;;5052454;28;20234;-63
2021/10/06 12:25:31;;;;;;;1.30;0.70;;;18.80;67.00;;;;;;5051862;28;20179;-62
2021/10/06 12:28:06;;;;;;;2.00;0.77;;;18.80;66.80;;;;;;5051992;28;20214;-62
2021/10/06 12:30:32;;;;;;;2.15;1.00;;;18.90;66.70;;;;;;5051986;28;20178;-62
2021/10/06 12:33:02;;;;;;;1.67;0.80;;;18.90;66.60;;;;;;5052173;28;20686;-62
2021/10/06 12:35:28;;;;;;;1.23;0.95;;;19.00;66.50;;;;;;5052731;28;20179;-63
2021/10/06 12:38:01;;;;;;;0.63;0.60;;;19.00;66.40;;;;;;5051510;28;20664;-63
2021/10/06 12:40:51;;;;;;;0.80;0.80;;;19.00;66.60;;;;;;5052802;28;20261;-63
2021/10/06 12:43:21;;;;;;;1.48;0.77;;;18.90;66.70;;;;;;5052757;28;20160;-63
2021/10/06 12:46:06;;;;;;;3.83;1.10;;;18.90;67.00;;;;;;5051929;28;20218;-62
2021/10/06 12:48:35;;;;;;;1.02;0.63;;;18.90;66.90;;;;;;5052668;28;20179;-63